Time;durP1;ratioP1;P1;durP2;ratioP2;P2;SDS_P1;SDS_P2;PMS_P1;PMS_P2;Temp;Humidity;BMP_temperature;BMP_pressure;BME280_temperature;BME280_humidity;BME280_pressure;Samples;Min_cycle;Max_cycle;Signal;HPM_P1;HPM_P2
2022/06/19 00:02:17;;;;;;;24.30;5.15;;;;;;;;;;5063189;28;20082;-57
2022/06/19 00:04:51;;;;;;;21.58;4.30;;;;;;;;;;5065332;28;20032;-57
2022/06/19 00:07:17;;;;;;;16.92;4.53;;;;;;;;;;5073757;28;20024;-57
2022/06/19 00:09:42;;;;;;;16.70;4.57;;;;;;;;;;5071338;28;20074;-57
2022/06/19 00:12:08;;;;;;;18.55;4.88;;;;;;;;;;5064582;28;20466;-57
2022/06/19 00:14:36;;;;;;;16.80;4.25;;;;;;;;;;5069616;28;20024;-57
2022/06/19 00:17:04;;;;;;;23.55;4.43;;;;;;;;;;5073655;28;20078;-56
2022/06/19 00:19:30;;;;;;;27.40;4.70;;;;;;;;;;5074485;28;20035;-56
2022/06/19 00:21:55;;;;;;;24.52;4.72;;;;;;;;;;5069610;28;20107;-57
2022/06/19 00:24:21;;;;;;;17.33;4.25;;;;;;;;;;5064182;28;20479;-57
2022/06/19 00:26:46;;;;;;;21.80;3.95;;;;;;;;;;5069856;28;20531;-57
2022/06/19 00:29:11;;;;;;;25.33;4.72;;;;;;;;;;5071313;28;20036;-57
2022/06/19 00:31:37;;;;;;;25.50;4.43;;;;;;;;;;5069979;28;20069;-56
2022/06/19 00:34:03;;;;;;;17.13;3.95;;;;;;;;;;5068102;28;20112;-57
2022/06/19 00:36:29;;;;;;;16.88;4.07;;;;;;;;;;5067415;28;20124;-57
2022/06/19 00:38:55;;;;;;;22.67;4.50;;;;;;;;;;5063650;28;20107;-57
2022/06/19 00:41:21;;;;;;;23.38;4.13;;;;;;;;;;5062294;28;20028;-57
2022/06/19 00:43:58;;;;;;;19.67;4.05;;;;;;;;;;5060821;28;20028;-57
2022/06/19 00:46:41;;;;;;;21.52;6.00;;;;;;;;;;5063179;28;20033;-57
2022/06/19 00:49:13;;;;;;;15.10;4.03;;;;;;;;;;5064739;28;20032;-57
2022/06/19 00:51:39;;;;;;;22.35;4.32;;;;;;;;;;5063953;28;20487;-56
2022/06/19 00:54:07;;;;;;;18.77;4.50;;;;;;;;;;5062772;28;20082;-57
2022/06/19 00:56:33;;;;;;;25.60;4.82;;;;;;;;;;5069105;28;20085;-57
2022/06/19 00:58:58;;;;;;;16.92;4.45;;;;;;;;;;5063997;28;20479;-59
2022/06/19 01:01:27;;;;;;;21.83;4.72;;;;;;;;;;5060770;28;20364;-57
2022/06/19 01:04:01;;;;;;;20.00;4.50;;;;;;;;;;5062606;28;20404;-57
2022/06/19 01:06:27;;;;;;;20.42;4.47;;;;;;;;;;5066840;28;20737;-57
2022/06/19 01:08:55;;;;;;;19.60;4.63;;;;;;;;;;5070997;28;20028;-57
2022/06/19 01:11:22;;;;;;;20.52;4.80;;;;;;;;;;5062097;28;20730;-57
2022/06/19 01:13:48;;;;;;;24.02;4.25;;;;;;;;;;5070357;28;20060;-58
2022/06/19 01:16:14;;;;;;;27.13;5.43;;;;;;;;;;5068959;28;20483;-58
2022/06/19 01:18:40;;;;;;;19.23;4.57;;;;;;;;;;5071825;28;20050;-57
2022/06/19 01:21:16;;;;;;;22.77;5.47;;;;;;;;;;5066053;28;20020;-56
2022/06/19 01:23:48;;;;;;;18.33;4.75;;;;;;;;;;5070111;28;20061;-57
2022/06/19 01:26:15;;;;;;;23.58;5.03;;;;;;;;;;5069970;28;20107;-57
2022/06/19 01:28:54;;;;;;;21.92;4.50;;;;;;;;;;5066613;28;20115;-56
2022/06/19 01:31:24;;;;;;;22.75;6.57;;;;;;;;;;5064052;28;20205;-57
2022/06/19 01:33:55;;;;;;;21.10;4.53;;;;;;;;;;5076772;28;20024;-56
2022/06/19 01:36:22;;;;;;;22.30;4.53;;;;;;;;;;5070921;28;20028;-56
2022/06/19 01:38:51;;;;;;;24.92;6.05;;;;;;;;;;5065173;28;20024;-57
2022/06/19 01:41:31;;;;;;;16.10;4.18;;;;;;;;;;5065910;28;20434;-57
2022/06/19 01:43:57;;;;;;;21.40;4.50;;;;;;;;;;5062083;28;20507;-57
2022/06/19 01:46:24;;;;;;;18.45;4.50;;;;;;;;;;5063934;28;20032;-57
2022/06/19 01:48:50;;;;;;;20.50;4.65;;;;;;;;;;5066299;28;20028;-57
2022/06/19 01:51:16;;;;;;;31.13;6.15;;;;;;;;;;5068252;28;20036;-58
2022/06/19 01:54:13;;;;;;;24.83;4.78;;;;;;;;;;5071239;28;20398;-56
2022/06/19 01:56:39;;;;;;;16.85;4.55;;;;;;;;;;5066894;28;20530;-57
2022/06/19 01:59:09;;;;;;;19.33;4.75;;;;;;;;;;5066480;28;20132;-57
2022/06/19 02:01:36;;;;;;;25.27;6.05;;;;;;;;;;5069038;28;20639;-57
2022/06/19 02:04:04;;;;;;;19.13;6.13;;;;;;;;;;5071152;28;20047;-56
2022/06/19 02:06:43;;;;;;;16.02;4.80;;;;;;;;;;5071876;28;20058;-57
2022/06/19 02:09:09;;;;;;;18.95;5.25;;;;;;;;;;5074706;28;20588;-57
2022/06/19 02:11:35;;;;;;;21.85;4.88;;;;;;;;;;5072370;28;20032;-57
2022/06/19 02:14:06;;;;;;;18.73;4.45;;;;;;;;;;5068867;28;20038;-57
2022/06/19 02:16:35;;;;;;;29.65;5.60;;;;;;;;;;5071838;28;20027;-57
2022/06/19 02:19:01;;;;;;;18.02;4.65;;;;;;;;;;5076593;28;20043;-58
2022/06/19 02:21:41;;;;;;;17.88;4.82;;;;;;;;;;5074806;28;20407;-57
2022/06/19 02:24:10;;;;;;;19.17;4.15;;;;;;;;;;5067407;28;20043;-58
2022/06/19 02:26:37;;;;;;;21.80;4.43;;;;;;;;;;5072618;28;20035;-57
2022/06/19 02:29:06;;;;;;;17.23;5.22;;;;;;;;;;5082216;28;20027;-60
2022/06/19 02:31:34;;;;;;;20.17;5.50;;;;;;;;;;5075466;28;20020;-58
2022/06/19 02:34:03;;;;;;;17.13;4.88;;;;;;;;;;5070065;28;20033;-57
2022/06/19 02:36:42;;;;;;;;;;;;;;;;;;5065334;28;20033;-57
2022/06/19 02:39:32;;;;;;;16.73;4.85;;;;;;;;;;5065509;28;20417;-57
2022/06/19 02:42:22;;;;;;;26.60;5.03;;;;;;;;;;5061115;28;20657;-57
2022/06/19 02:45:03;;;;;;;22.52;4.72;;;;;;;;;;5053370;28;20033;-57
2022/06/19 02:47:33;;;;;;;20.67;5.10;;;;;;;;;;5062693;28;20042;-57
2022/06/19 02:49:58;;;;;;;20.30;5.55;;;;;;;;;;5063708;28;20039;-58
2022/06/19 02:52:23;;;;;;;14.77;4.63;;;;;;;;;;5071784;28;20024;-57
2022/06/19 02:54:49;;;;;;;14.65;5.07;;;;;;;;;;5068098;28;20031;-56
2022/06/19 02:57:16;;;;;;;19.08;5.15;;;;;;;;;;5068299;28;20103;-58
2022/06/19 02:59:41;;;;;;;21.58;5.05;;;;;;;;;;5064825;28;20052;-57
2022/06/19 03:02:07;;;;;;;14.45;4.90;;;;;;;;;;5065211;28;20484;-57
2022/06/19 03:04:36;;;;;;;20.67;5.05;;;;;;;;;;5074579;28;20161;-57
2022/06/19 03:07:03;;;;;;;14.45;4.70;;;;;;;;;;5071924;28;20032;-57
2022/06/19 03:09:28;;;;;;;18.85;4.57;;;;;;;;;;5070434;28;20033;-57
2022/06/19 03:11:54;;;;;;;19.02;5.03;;;;;;;;;;5072023;28;20028;-57
2022/06/19 03:14:19;;;;;;;21.75;5.25;;;;;;;;;;5075391;28;20507;-57
2022/06/19 03:16:45;;;;;;;20.67;5.13;;;;;;;;;;5072967;28;20055;-57
2022/06/19 03:19:14;;;;;;;18.50;4.60;;;;;;;;;;5065434;28;20029;-57
2022/06/19 03:21:39;;;;;;;18.55;5.05;;;;;;;;;;5067619;28;20021;-57
2022/06/19 03:24:05;;;;;;;16.45;5.22;;;;;;;;;;5071721;28;20515;-57
2022/06/19 03:26:31;;;;;;;18.95;4.82;;;;;;;;;;5071968;28;20034;-57
2022/06/19 03:28:58;;;;;;;22.05;5.63;;;;;;;;;;5060246;28;20032;-57
2022/06/19 03:31:25;;;;;;;19.17;5.00;;;;;;;;;;5067718;28;20051;-57
2022/06/19 03:33:51;;;;;;;17.15;4.63;;;;;;;;;;5063106;28;20025;-57
2022/06/19 03:36:17;;;;;;;11.80;4.57;;;;;;;;;;5064922;28;20039;-56
2022/06/19 03:38:42;;;;;;;23.05;5.32;;;;;;;;;;5062748;28;20036;-56
2022/06/19 03:41:08;;;;;;;19.58;5.05;;;;;;;;;;5059864;28;20036;-57
2022/06/19 03:43:34;;;;;;;18.02;4.97;;;;;;;;;;5065513;28;20168;-57
2022/06/19 03:46:01;;;;;;;21.08;4.78;;;;;;;;;;5063384;28;20050;-57
2022/06/19 03:48:27;;;;;;;19.55;4.93;;;;;;;;;;5069315;28;20518;-57
2022/06/19 03:50:52;;;;;;;22.27;4.95;;;;;;;;;;5070103;28;20148;-57
2022/06/19 03:53:18;;;;;;;19.00;5.15;;;;;;;;;;5072502;28;20487;-58
2022/06/19 03:55:44;;;;;;;21.77;5.57;;;;;;;;;;5070696;28;20020;-56
2022/06/19 03:58:10;;;;;;;19.80;5.53;;;;;;;;;;5071813;28;20024;-57
2022/06/19 04:00:38;;;;;;;20.05;4.60;;;;;;;;;;5068483;28;20028;-57
2022/06/19 04:03:03;;;;;;;17.92;4.30;;;;;;;;;;5071616;28;20048;-56
2022/06/19 04:05:29;;;;;;;21.08;5.60;;;;;;;;;;5073186;28;20052;-57
2022/06/19 04:07:55;;;;;;;19.55;5.15;;;;;;;;;;5068424;28;20501;-57
2022/06/19 04:10:24;;;;;;;19.38;6.28;;;;;;;;;;5070579;28;20047;-56
2022/06/19 04:12:49;;;;;;;22.08;5.43;;;;;;;;;;5065232;28;20028;-57
2022/06/19 04:15:15;;;;;;;21.77;5.35;;;;;;;;;;5070144;28;20024;-58
2022/06/19 04:17:41;;;;;;;20.02;4.90;;;;;;;;;;5075288;28;20055;-57
2022/06/19 04:20:08;;;;;;;28.63;5.82;;;;;;;;;;5063251;28;20020;-57
2022/06/19 04:22:34;;;;;;;16.05;5.13;;;;;;;;;;5066937;28;20024;-57
2022/06/19 04:25:00;;;;;;;28.67;6.13;;;;;;;;;;5074466;28;20035;-57
2022/06/19 04:27:26;;;;;;;15.85;5.15;;;;;;;;;;5074771;28;20028;-57
2022/06/19 04:29:51;;;;;;;19.42;5.38;;;;;;;;;;5063890;28;20682;-56
2022/06/19 04:32:16;;;;;;;19.20;5.43;;;;;;;;;;5066748;28;20040;-58
2022/06/19 04:34:42;;;;;;;20.15;5.82;;;;;;;;;;5064064;28;20069;-57
2022/06/19 04:37:07;;;;;;;20.70;5.15;;;;;;;;;;5067557;28;20062;-57
2022/06/19 04:39:33;;;;;;;17.77;4.72;;;;;;;;;;5063842;28;20107;-56
2022/06/19 04:41:59;;;;;;;13.80;4.95;;;;;;;;;;5060627;28;20230;-57
2022/06/19 04:44:25;;;;;;;25.15;5.40;;;;;;;;;;5065200;28;20021;-57
2022/06/19 04:46:51;;;;;;;15.57;5.00;;;;;;;;;;5070184;28;20028;-57
2022/06/19 04:49:17;;;;;;;25.13;6.00;;;;;;;;;;5070681;28;20033;-56
2022/06/19 04:51:43;;;;;;;14.45;5.28;;;;;;;;;;5067864;28;20025;-57
2022/06/19 04:54:09;;;;;;;18.30;5.40;;;;;;;;;;5070596;28;20032;-57
2022/06/19 04:56:37;;;;;;;18.13;5.25;;;;;;;;;;5070517;28;20036;-56
2022/06/19 04:59:04;;;;;;;23.58;5.78;;;;;;;;;;5068611;28;20021;-59
2022/06/19 05:01:38;;;;;;;13.52;4.72;;;;;;;;;;5067567;28;20055;-58
2022/06/19 05:04:08;;;;;;;23.05;5.28;;;;;;;;;;5071324;28;20494;-59
2022/06/19 05:06:33;;;;;;;24.60;5.55;;;;;;;;;;5072067;28;20024;-60
2022/06/19 05:08:59;;;;;;;19.63;5.22;;;;;;;;;;5073637;28;20025;-59
2022/06/19 05:11:26;;;;;;;17.45;6.20;;;;;;;;;;5070333;28;20027;-59
2022/06/19 05:13:52;;;;;;;15.20;5.32;;;;;;;;;;5072360;28;20515;-59
2022/06/19 05:16:20;;;;;;;20.02;6.05;;;;;;;;;;5073009;28;20036;-59
2022/06/19 05:18:47;;;;;;;21.07;6.20;;;;;;;;;;5074655;28;20024;-59
2022/06/19 05:21:13;;;;;;;19.15;5.70;;;;;;;;;;5069890;28;20839;-59
2022/06/19 05:23:46;;;;;;;19.42;5.60;;;;;;;;;;5070561;28;20025;-60
2022/06/19 05:26:21;;;;;;;19.55;6.35;;;;;;;;;;5074030;28;20081;-58
2022/06/19 05:28:48;;;;;;;19.30;5.70;;;;;;;;;;5074842;28;20049;-59
2022/06/19 05:31:14;;;;;;;21.77;6.55;;;;;;;;;;5062643;28;20082;-59
2022/06/19 05:33:39;;;;;;;23.48;5.65;;;;;;;;;;5069809;28;20024;-59
2022/06/19 05:36:06;;;;;;;23.67;5.47;;;;;;;;;;5067079;28;20171;-59
2022/06/19 05:38:31;;;;;;;21.08;6.47;;;;;;;;;;5071228;28;20043;-59
2022/06/19 05:40:58;;;;;;;16.92;5.40;;;;;;;;;;5065724;28;20021;-60
2022/06/19 05:43:26;;;;;;;19.95;5.00;;;;;;;;;;5071079;28;20089;-59
2022/06/19 05:45:53;;;;;;;18.60;6.25;;;;;;;;;;5066981;28;20578;-59
2022/06/19 05:48:19;;;;;;;19.00;5.47;;;;;;;;;;5073207;28;20039;-59
2022/06/19 05:50:45;;;;;;;27.20;6.47;;;;;;;;;;5069223;28;20033;-61
2022/06/19 05:53:10;;;;;;;17.85;5.30;;;;;;;;;;5074141;28;20044;-59
2022/06/19 05:55:36;;;;;;;16.75;4.97;;;;;;;;;;5074699;28;20035;-59
2022/06/19 05:58:01;;;;;;;13.18;5.22;;;;;;;;;;5074480;28;20028;-59
2022/06/19 06:00:27;;;;;;;20.85;6.53;;;;;;;;;;5070018;28;20131;-59
2022/06/19 06:02:52;;;;;;;16.27;5.75;;;;;;;;;;5072306;28;20051;-59
2022/06/19 06:05:18;;;;;;;18.77;5.47;;;;;;;;;;5072981;28;20059;-59
2022/06/19 06:07:43;;;;;;;23.17;4.88;;;;;;;;;;5070721;28;20394;-60
2022/06/19 06:10:10;;;;;;;19.98;5.55;;;;;;;;;;5071841;28;20025;-59
2022/06/19 06:12:35;;;;;;;19.42;5.57;;;;;;;;;;5063566;28;20207;-59
2022/06/19 06:15:01;;;;;;;15.70;4.90;;;;;;;;;;5070134;28;20194;-57
2022/06/19 06:17:26;;;;;;;11.52;4.63;;;;;;;;;;5079800;28;20503;-57
2022/06/19 06:19:52;;;;;;;13.85;5.18;;;;;;;;;;5072660;28;20024;-57
2022/06/19 06:22:17;;;;;;;18.55;5.22;;;;;;;;;;5068722;28;20511;-57
2022/06/19 06:24:43;;;;;;;12.55;5.50;;;;;;;;;;5076999;28;20036;-57
2022/06/19 06:27:14;;;;;;;19.05;5.35;;;;;;;;;;5072490;28;20024;-57
2022/06/19 06:29:40;;;;;;;27.95;6.28;;;;;;;;;;5062623;28;20559;-58
2022/06/19 06:32:05;;;;;;;21.25;5.85;;;;;;;;;;5061344;28;20025;-57
2022/06/19 06:34:31;;;;;;;30.65;6.28;;;;;;;;;;5065464;28;20123;-57
2022/06/19 06:36:56;;;;;;;14.98;5.15;;;;;;;;;;5066509;28;20024;-57
2022/06/19 06:39:22;;;;;;;21.13;6.00;;;;;;;;;;5067131;28;20033;-57
2022/06/19 06:41:47;;;;;;;28.58;6.57;;;;;;;;;;5063142;28;20029;-57
2022/06/19 06:44:13;;;;;;;18.60;5.50;;;;;;;;;;5070467;28;20546;-57
2022/06/19 06:46:39;;;;;;;16.55;6.40;;;;;;;;;;5074055;28;20032;-57
2022/06/19 06:49:05;;;;;;;20.98;5.63;;;;;;;;;;5072637;28;20043;-57
2022/06/19 06:51:31;;;;;;;18.95;5.57;;;;;;;;;;5069786;28;20032;-57
2022/06/19 06:53:57;;;;;;;23.88;6.18;;;;;;;;;;5064813;28;20108;-57
2022/06/19 06:56:22;;;;;;;26.00;7.20;;;;;;;;;;5062838;28;20053;-58
2022/06/19 06:58:48;;;;;;;23.50;5.80;;;;;;;;;;5053046;28;20107;-59
2022/06/19 07:01:16;;;;;;;19.60;5.70;;;;;;;;;;5054186;28;20488;-57
2022/06/19 07:03:43;;;;;;;26.23;6.60;;;;;;;;;;5057774;28;20040;-57
2022/06/19 07:06:15;;;;;;;23.55;6.35;;;;;;;;;;5074191;28;20105;-57
2022/06/19 07:08:41;;;;;;;21.20;8.02;;;;;;;;;;5073624;28;20016;-56
2022/06/19 07:11:13;;;;;;;23.95;6.35;;;;;;;;;;5067825;28;20044;-58
2022/06/19 07:13:39;;;;;;;14.15;6.13;;;;;;;;;;5069534;28;20025;-58
2022/06/19 07:16:04;;;;;;;16.67;6.20;;;;;;;;;;5058042;28;20356;-57
2022/06/19 07:18:29;;;;;;;33.75;7.30;;;;;;;;;;5067623;28;20055;-57
2022/06/19 07:20:55;;;;;;;39.08;8.10;;;;;;;;;;5068584;28;20020;-58
2022/06/19 07:23:20;;;;;;;16.55;6.40;;;;;;;;;;5063468;28;20585;-57
2022/06/19 07:25:46;;;;;;;24.58;7.32;;;;;;;;;;5065245;28;20017;-56
2022/06/19 07:28:15;;;;;;;23.60;7.30;;;;;;;;;;5071913;28;20060;-59
2022/06/19 07:30:40;;;;;;;26.50;7.53;;;;;;;;;;5062328;28;20436;-58
2022/06/19 07:33:05;;;;;;;26.77;7.50;;;;;;;;;;5068946;28;20044;-59
2022/06/19 07:35:31;;;;;;;24.13;6.90;;;;;;;;;;5065368;28;20111;-59
2022/06/19 07:37:56;;;;;;;30.45;8.00;;;;;;;;;;5069354;28;20024;-59
2022/06/19 07:40:23;;;;;;;22.33;8.15;;;;;;;;;;5066296;28;20070;-60
2022/06/19 07:42:49;;;;;;;16.48;7.57;;;;;;;;;;5070942;28;20077;-58
2022/06/19 07:45:15;;;;;;;28.85;8.80;;;;;;;;;;5065487;28;20037;-58
2022/06/19 07:50:26;;;;;;;26.45;11.05;;;;;;;;;;5069302;28;20859;-59
2022/06/19 07:52:52;;;;;;;25.88;12.10;;;;;;;;;;5068379;28;20097;-60
2022/06/19 07:55:23;;;;;;;44.60;21.48;;;;;;;;;;5071563;28;20495;-58
2022/06/19 07:57:49;;;;;;;28.25;15.20;;;;;;;;;;5073467;28;20028;-59
2022/06/19 08:00:26;;;;;;;19.83;12.38;;;;;;;;;;5061244;28;20506;-58
2022/06/19 08:02:53;;;;;;;28.08;14.93;;;;;;;;;;5067815;28;20024;-60
2022/06/19 08:05:23;;;;;;;25.25;13.02;;;;;;;;;;5073938;28;20023;-59
2022/06/19 08:07:50;;;;;;;29.05;12.57;;;;;;;;;;5070923;28;20445;-60
2022/06/19 08:10:31;;;;;;;29.63;12.48;;;;;;;;;;5068172;28;20024;-58
2022/06/19 08:12:57;;;;;;;25.95;12.65;;;;;;;;;;5066161;28;20029;-60
2022/06/19 08:15:23;;;;;;;30.25;13.40;;;;;;;;;;5066869;28;20058;-59
2022/06/19 08:17:49;;;;;;;28.30;13.15;;;;;;;;;;5064054;28;20115;-59
2022/06/19 08:20:16;;;;;;;24.83;12.75;;;;;;;;;;5069381;28;20399;-61
2022/06/19 08:22:42;;;;;;;23.73;13.55;;;;;;;;;;5066858;28;20016;-59
2022/06/19 08:25:10;;;;;;;23.35;13.63;;;;;;;;;;5068797;28;20116;-60
2022/06/19 08:27:42;;;;;;;26.58;13.95;;;;;;;;;;5064431;28;20048;-60
2022/06/19 08:30:15;;;;;;;28.95;14.82;;;;;;;;;;5060736;28;20025;-60
2022/06/19 08:32:41;;;;;;;26.38;13.20;;;;;;;;;;5063060;28;20024;-59
2022/06/19 08:35:06;;;;;;;29.95;13.00;;;;;;;;;;5065864;28;20032;-61
2022/06/19 08:37:34;;;;;;;28.25;12.77;;;;;;;;;;5063869;28;20108;-59
2022/06/19 08:40:01;;;;;;;33.73;13.00;;;;;;;;;;5063234;28;20377;-59
2022/06/19 08:43:01;;;;;;;24.33;12.88;;;;;;;;;;5064662;28;20048;-59
2022/06/19 08:45:43;;;;;;;35.92;12.40;;;;;;;;;;5065644;28;20029;-60
2022/06/19 08:48:11;;;;;;;31.50;13.23;;;;;;;;;;5066421;28;20029;-60
2022/06/19 08:50:57;;;;;;;26.80;13.67;;;;;;;;;;5066454;28;20021;-60
2022/06/19 08:53:57;;;;;;;32.33;13.05;;;;;;;;;;5064942;28;20081;-60
2022/06/19 08:56:43;;;;;;;30.65;13.82;;;;;;;;;;5066226;28;20519;-59
2022/06/19 08:59:31;;;;;;;26.50;13.55;;;;;;;;;;5063715;28;20017;-59
2022/06/19 09:02:28;;;;;;;24.40;13.27;;;;;;;;;;5068072;28;20047;-60
2022/06/19 09:08:32;;;;;;;31.50;13.52;;;;;;;;;;5068294;28;20104;-60
2022/06/19 09:11:06;;;;;;;29.92;13.63;;;;;;;;;;5066191;28;20116;-59
2022/06/19 09:13:52;;;;;;;23.73;13.85;;;;;;;;;;5068669;28;20516;-59
2022/06/19 09:16:33;;;;;;;27.45;14.25;;;;;;;;;;5062053;28;20044;-58
2022/06/19 09:19:13;;;;;;;28.33;14.90;;;;;;;;;;5072019;28;20040;-59
2022/06/19 09:22:01;;;;;;;25.80;14.30;;;;;;;;;;5061619;28;20040;-60
2022/06/19 09:24:33;;;;;;;28.17;13.45;;;;;;;;;;5048978;28;20039;-59
2022/06/19 09:27:00;;;;;;;31.20;14.65;;;;;;;;;;5061099;28;20037;-60
2022/06/19 09:29:42;;;;;;;25.45;14.32;;;;;;;;;;5067500;28;20040;-60
2022/06/19 09:32:16;;;;;;;29.77;15.98;;;;;;;;;;5060728;28;20029;-59
2022/06/19 09:34:58;;;;;;;32.38;16.20;;;;;;;;;;5061786;28;20058;-59
2022/06/19 09:37:38;;;;;;;28.92;16.45;;;;;;;;;;5062132;28;20032;-60
2022/06/19 09:40:26;;;;;;;28.30;16.38;;;;;;;;;;5067909;28;20056;-58
2022/06/19 09:42:56;;;;;;;26.95;17.00;;;;;;;;;;5068683;28;20044;-58
2022/06/19 09:45:28;;;;;;;33.38;16.13;;;;;;;;;;5071074;28;20031;-58
2022/06/19 09:48:22;;;;;;;27.58;15.75;;;;;;;;;;5061842;28;20496;-59
2022/06/19 09:51:04;;;;;;;32.42;17.33;;;;;;;;;;5060857;28;20552;-59
2022/06/19 09:53:55;;;;;;;27.20;16.40;;;;;;;;;;5066124;28;20028;-59
2022/06/19 09:56:34;;;;;;;28.50;16.38;;;;;;;;;;5069222;28;20086;-59
2022/06/19 09:59:35;;;;;;;24.80;16.20;;;;;;;;;;5072635;28;20452;-59
2022/06/19 10:02:23;;;;;;;33.70;16.45;;;;;;;;;;5064479;28;20061;-59
2022/06/19 10:05:03;;;;;;;25.45;16.00;;;;;;;;;;5069323;28;20121;-60
2022/06/19 10:07:41;;;;;;;34.85;18.08;;;;;;;;;;5065776;28;20029;-58
2022/06/19 10:10:35;;;;;;;30.27;16.30;;;;;;;;;;5072843;28;20569;-59
2022/06/19 10:13:04;;;;;;;32.35;16.50;;;;;;;;;;5064914;28;20484;-59
2022/06/19 10:15:34;;;;;;;25.27;15.43;;;;;;;;;;5063603;28;20024;-59
2022/06/19 10:18:07;;;;;;;27.75;16.00;;;;;;;;;;5072220;28;20448;-59
2022/06/19 10:20:58;;;;;;;26.17;15.68;;;;;;;;;;5068860;28;20020;-59
2022/06/19 10:23:51;;;;;;;27.33;15.70;;;;;;;;;;5059530;28;20044;-59
2022/06/19 10:26:42;;;;;;;28.90;15.70;;;;;;;;;;5062279;28;20349;-59
2022/06/19 10:29:30;;;;;;;27.60;15.45;;;;;;;;;;5060508;28;20053;-59
2022/06/19 10:32:25;;;;;;;31.48;16.52;;;;;;;;;;5059645;28;20067;-59
2022/06/19 10:35:05;;;;;;;26.73;16.25;;;;;;;;;;5025047;28;20120;-59
2022/06/19 10:37:41;;;;;;;31.85;15.65;;;;;;;;;;5058298;28;20021;-59
2022/06/19 10:40:21;;;;;;;31.05;18.05;;;;;;;;;;5058802;28;20032;-59
2022/06/19 10:42:57;;;;;;;25.00;16.10;;;;;;;;;;5061805;28;20031;-60
2022/06/19 10:45:49;;;;;;;32.35;16.63;;;;;;;;;;5061081;28;20082;-59
2022/06/19 10:48:52;;;;;;;31.30;16.58;;;;;;;;;;5057924;28;20028;-60
2022/06/19 10:51:51;;;;;;;28.92;16.00;;;;;;;;;;5059753;28;20382;-60
2022/06/19 10:54:23;;;;;;;26.70;16.17;;;;;;;;;;5064294;28;20502;-60
2022/06/19 10:57:07;;;;;;;29.50;16.58;;;;;;;;;;5061893;28;20491;-59
2022/06/19 10:59:32;;;;;;;21.73;15.10;;;;;;;;;;5062256;28;20518;-60
2022/06/19 11:05:13;;;;;;;34.65;16.80;;;;;;;;;;5063108;28;20711;-60
2022/06/19 11:07:40;;;;;;;25.65;16.63;;;;;;;;;;5062453;28;20035;-60
2022/06/19 11:10:16;;;;;;;26.65;15.70;;;;;;;;;;5066341;28;20056;-60
2022/06/19 11:12:56;;;;;;;29.17;15.82;;;;;;;;;;5072948;28;20074;-59
2022/06/19 11:15:24;;;;;;;24.42;15.00;;;;;;;;;;5065806;28;20032;-59
2022/06/19 11:18:05;;;;;;;27.25;15.07;;;;;;;;;;5078226;28;20048;-59
2022/06/19 11:20:31;;;;;;;27.48;15.98;;;;;;;;;;5073272;28;20027;-59
2022/06/19 11:23:20;;;;;;;25.58;15.00;;;;;;;;;;5064137;28;20024;-60
2022/06/19 11:26:00;;;;;;;24.83;14.65;;;;;;;;;;5065443;28;20043;-59
2022/06/19 11:28:44;;;;;;;26.90;14.05;;;;;;;;;;5064829;28;20032;-59
2022/06/19 11:31:22;;;;;;;26.67;15.18;;;;;;;;;;5061028;28;20064;-59
2022/06/19 11:33:51;;;;;;;30.13;14.90;;;;;;;;;;5063792;28;20027;-60
2022/06/19 11:36:30;;;;;;;25.70;15.10;;;;;;;;;;5066271;28;20042;-61
2022/06/19 11:38:56;;;;;;;24.58;15.43;;;;;;;;;;5067118;28;20030;-60
2022/06/19 11:41:21;;;;;;;32.92;16.80;;;;;;;;;;5056685;28;20119;-60
2022/06/19 11:44:07;;;;;;;23.52;14.93;;;;;;;;;;5061519;28;20111;-60
2022/06/19 11:46:48;;;;;;;24.48;14.00;;;;;;;;;;5063699;28;20462;-60
2022/06/19 11:49:40;;;;;;;25.95;13.93;;;;;;;;;;5065980;28;20040;-60
2022/06/19 11:52:17;;;;;;;29.60;14.88;;;;;;;;;;5058331;28;20021;-60
2022/06/19 11:54:48;;;;;;;27.85;14.10;;;;;;;;;;5060366;28;20475;-60
2022/06/19 11:57:30;;;;;;;22.25;13.18;;;;;;;;;;5062882;28;20363;-60
2022/06/19 11:59:59;;;;;;;23.95;12.65;;;;;;;;;;5062713;28;20085;-60
2022/06/19 12:02:33;;;;;;;31.77;13.23;;;;;;;;;;5056829;28;20108;-61
2022/06/19 12:05:04;;;;;;;25.77;13.15;;;;;;;;;;5063078;28;20237;-60
2022/06/19 12:07:34;;;;;;;22.75;12.13;;;;;;;;;;5068314;28;20085;-60
2022/06/19 12:10:25;;;;;;;28.80;12.90;;;;;;;;;;5059478;28;20066;-61
2022/06/19 12:12:54;;;;;;;29.52;13.20;;;;;;;;;;5062466;28;20039;-61
2022/06/19 12:15:28;;;;;;;25.40;13.18;;;;;;;;;;5064013;28;20592;-61
2022/06/19 12:18:17;;;;;;;27.98;13.40;;;;;;;;;;5061583;28;20075;-59
2022/06/19 12:20:42;;;;;;;30.35;12.88;;;;;;;;;;5048606;28;20125;-60
2022/06/19 12:23:17;;;;;;;25.08;12.25;;;;;;;;;;5060179;28;20041;-63
2022/06/19 12:25:56;;;;;;;23.35;11.65;;;;;;;;;;5056594;28;20020;-58
2022/06/19 12:28:38;;;;;;;23.50;11.45;;;;;;;;;;5058819;28;20083;-59
2022/06/19 12:31:27;;;;;;;20.83;11.50;;;;;;;;;;5060625;28;20028;-59
2022/06/19 12:33:59;;;;;;;28.67;10.77;;;;;;;;;;5061971;28;20115;-59
2022/06/19 12:36:34;;;;;;;26.98;10.98;;;;;;;;;;5058241;28;20021;-59
2022/06/19 12:39:01;;;;;;;28.55;11.07;;;;;;;;;;5058414;28;20496;-60
2022/06/19 12:41:38;;;;;;;24.00;10.63;;;;;;;;;;5059858;28;20043;-60
2022/06/19 12:44:21;;;;;;;26.92;11.02;;;;;;;;;;5059565;28;20056;-60
2022/06/19 12:46:52;;;;;;;24.20;11.00;;;;;;;;;;5064269;28;20023;-60
2022/06/19 12:49:38;;;;;;;29.45;11.52;;;;;;;;;;5056833;28;20039;-60
2022/06/19 12:52:48;;;;;;;23.85;11.07;;;;;;;;;;5063299;28;20076;-60
2022/06/19 12:55:22;;;;;;;24.17;10.50;;;;;;;;;;5024590;28;20133;-60
2022/06/19 12:58:03;;;;;;;21.42;9.70;;;;;;;;;;5061463;28;20148;-60
2022/06/19 13:00:49;;;;;;;24.50;10.55;;;;;;;;;;5059127;28;20107;-61
2022/06/19 13:03:52;;;;;;;27.60;10.07;;;;;;;;;;5059975;28;20039;-59
2022/06/19 13:06:42;;;;;;;23.55;10.65;;;;;;;;;;5066757;28;20034;-60
2022/06/19 13:09:15;;;;;;;27.30;11.15;;;;;;;;;;5066439;28;20041;-60
2022/06/19 13:11:49;;;;;;;21.05;9.63;;;;;;;;;;5064520;28;20075;-59
2022/06/19 13:14:54;;;;;;;31.15;10.93;;;;;;;;;;5060210;28;20515;-59
2022/06/19 13:17:31;;;;;;;22.20;10.30;;;;;;;;;;5061527;28;20484;-61
2022/06/19 13:20:28;;;;;;;26.17;9.75;;;;;;;;;;5058435;28;20024;-60
2022/06/19 13:23:13;;;;;;;21.87;9.83;;;;;;;;;;5059781;28;20048;-59
2022/06/19 13:25:48;;;;;;;24.50;9.82;;;;;;;;;;5056482;28;20036;-60
2022/06/19 13:28:48;;;;;;;27.23;9.43;;;;;;;;;;5065630;28;20277;-60
2022/06/19 13:31:43;;;;;;;21.90;9.35;;;;;;;;;;5061199;28;20029;-59
2022/06/19 13:34:31;;;;;;;26.35;9.18;;;;;;;;;;5063300;28;20136;-60
2022/06/19 13:37:31;;;;;;;20.98;9.55;;;;;;;;;;5061533;28;20115;-59
2022/06/19 13:40:22;;;;;;;25.27;9.20;;;;;;;;;;5062644;28;20035;-60
2022/06/19 13:42:55;;;;;;;25.42;9.48;;;;;;;;;;5062661;28;20120;-60
2022/06/19 13:45:24;;;;;;;21.10;8.85;;;;;;;;;;5065474;28;20654;-60
2022/06/19 13:47:49;;;;;;;24.55;9.45;;;;;;;;;;5066757;28;20044;-60
2022/06/19 13:50:24;;;;;;;25.10;9.77;;;;;;;;;;5061781;28;20413;-60
2022/06/19 13:53:06;;;;;;;22.20;9.80;;;;;;;;;;5065606;28;20116;-60
2022/06/19 13:55:40;;;;;;;21.38;9.52;;;;;;;;;;5058082;28;20110;-59
2022/06/19 13:58:15;;;;;;;22.35;10.02;;;;;;;;;;5062499;28;20437;-60
2022/06/19 14:00:53;;;;;;;22.65;9.18;;;;;;;;;;5062949;28;20024;-60
2022/06/19 14:06:37;;;;;;;25.08;9.40;;;;;;;;;;5062313;28;20090;-60
2022/06/19 14:09:22;;;;;;;19.73;8.70;;;;;;;;;;5063712;28;20629;-60
2022/06/19 14:12:05;;;;;;;25.55;8.90;;;;;;;;;;5065585;28;20462;-61
2022/06/19 14:14:40;;;;;;;29.92;9.50;;;;;;;;;;5062173;28;20047;-60
2022/06/19 14:17:14;;;;;;;21.10;8.05;;;;;;;;;;5065743;28;20144;-60
2022/06/19 14:19:50;;;;;;;25.55;8.85;;;;;;;;;;5068849;28;20129;-60
2022/06/19 14:22:37;;;;;;;19.30;8.32;;;;;;;;;;5062407;28;20033;-60
2022/06/19 14:25:22;;;;;;;25.52;9.43;;;;;;;;;;5061873;28;20114;-60
2022/06/19 14:28:07;;;;;;;26.10;8.73;;;;;;;;;;5062216;28;20051;-60
2022/06/19 14:30:49;;;;;;;18.25;8.50;;;;;;;;;;5067098;28;20169;-60
2022/06/19 14:33:33;;;;;;;25.38;10.02;;;;;;;;;;5068459;28;20041;-60
2022/06/19 14:36:17;;;;;;;26.70;9.05;;;;;;;;;;5067018;28;20507;-59
2022/06/19 14:38:42;;;;;;;23.77;8.63;;;;;;;;;;5067720;28;20016;-61
2022/06/19 14:41:12;;;;;;;21.83;8.23;;;;;;;;;;5070315;28;20051;-60
2022/06/19 14:43:49;;;;;;;24.70;8.10;;;;;;;;;;5068742;28;20098;-61
2022/06/19 14:46:24;;;;;;;25.88;8.52;;;;;;;;;;5073312;28;20024;-61
2022/06/19 14:49:20;;;;;;;17.55;7.60;;;;;;;;;;5067520;28;20031;-60
2022/06/19 14:52:14;;;;;;;20.45;7.97;;;;;;;;;;5065281;28;20093;-60
2022/06/19 14:54:39;;;;;;;22.20;7.57;;;;;;;;;;5065078;28;20403;-60
2022/06/19 14:57:11;;;;;;;26.55;8.77;;;;;;;;;;5066415;28;20036;-60
2022/06/19 14:59:50;;;;;;;21.80;8.10;;;;;;;;;;5068258;28;20043;-61
2022/06/19 15:02:19;;;;;;;21.38;8.13;;;;;;;;;;5065180;28;20031;-61
2022/06/19 15:05:04;;;;;;;22.58;8.93;;;;;;;;;;5067292;28;20131;-61
2022/06/19 15:07:30;;;;;;;30.02;8.23;;;;;;;;;;5066542;28;20028;-60
2022/06/19 15:10:23;;;;;;;23.95;8.60;;;;;;;;;;5067738;28;20462;-61
2022/06/19 15:13:23;;;;;;;19.90;8.68;;;;;;;;;;5069013;28;20108;-61